createdAt,value
2023-03-29T00:01:10.402Z,149.50
2023-03-29T00:03:42.177Z,145.43
2023-03-29T00:06:10.253Z,145.90
2023-03-29T00:08:40.581Z,148.55
2023-03-29T00:11:08.006Z,149.02
2023-03-29T00:13:39.042Z,151.48
2023-03-29T00:16:06.326Z,150.80
2023-03-29T00:18:33.878Z,151.63
2023-03-29T00:21:07.392Z,148.57
2023-03-29T00:23:34.911Z,146.90
2023-03-29T00:26:07.778Z,146.00
2023-03-29T00:28:45.444Z,152.32
2023-03-29T00:31:16.407Z,147.15
2023-03-29T00:33:51.081Z,153.88
2023-03-29T00:36:22.422Z,150.85
2023-03-29T00:38:50.683Z,145.52
2023-03-29T00:41:17.900Z,146.32
2023-03-29T00:44:02.120Z,154.38
2023-03-29T00:46:35.319Z,151.93
2023-03-29T00:49:13.057Z,151.48
2023-03-29T00:51:41.711Z,146.00
2023-03-29T00:54:17.700Z,148.93
2023-03-29T00:56:49.883Z,157.35
2023-03-29T00:59:21.877Z,150.43
2023-03-29T01:01:58.555Z,145.68
2023-03-29T01:04:33.707Z,149.93
2023-03-29T01:07:14.197Z,150.30
2023-03-29T01:09:46.313Z,147.40
2023-03-29T01:12:22.365Z,148.32
2023-03-29T01:14:55.598Z,150.85
2023-03-29T01:17:26.068Z,147.52
2023-03-29T01:19:59.371Z,149.60
2023-03-29T01:22:38.964Z,143.25
2023-03-29T01:25:34.146Z,144.27
2023-03-29T01:28:06.335Z,147.98
2023-03-29T01:30:50.694Z,152.18
2023-03-29T01:33:28.809Z,146.75
2023-03-29T01:36:15.543Z,150.43
2023-03-29T01:38:58.550Z,152.18
2023-03-29T01:41:48.747Z,150.70
2023-03-29T01:45:05.025Z,156.95
2023-03-29T01:47:48.484Z,154.15
2023-03-29T01:50:34.651Z,154.43
2023-03-29T01:53:21.471Z,152.02
2023-03-29T01:55:59.146Z,151.10
2023-03-29T01:58:39.105Z,152.23
2023-03-29T02:01:11.019Z,149.27
2023-03-29T02:03:47.361Z,145.68
2023-03-29T02:06:21.175Z,152.88
2023-03-29T02:08:50.130Z,150.93
2023-03-29T02:11:21.024Z,150.45
2023-03-29T02:13:48.770Z,142.57
2023-03-29T02:16:17.245Z,147.23
2023-03-29T02:18:47.923Z,154.90
2023-03-29T02:21:38.639Z,156.60
2023-03-29T02:24:12.101Z,145.13
2023-03-29T02:26:42.726Z,147.15
2023-03-29T02:29:10.008Z,153.25
2023-03-29T02:31:50.049Z,146.18
2023-03-29T02:34:33.425Z,153.10
2023-03-29T02:37:07.472Z,147.85
2023-03-29T02:39:35.873Z,153.95
2023-03-29T02:42:09.547Z,151.80
2023-03-29T02:44:43.313Z,158.40
2023-03-29T02:47:33.402Z,148.35
2023-03-29T02:50:00.975Z,154.48
2023-03-29T02:52:36.764Z,150.93
2023-03-29T02:55:07.744Z,154.68
2023-03-29T02:57:38.246Z,149.82
2023-03-29T03:00:10.576Z,147.73
2023-03-29T03:02:41.999Z,156.75
2023-03-29T03:05:12.908Z,160.35
2023-03-29T03:07:40.866Z,151.40
2023-03-29T03:10:10.223Z,152.35
2023-03-29T03:12:38.875Z,156.18
2023-03-29T03:15:08.719Z,150.18
2023-03-29T03:17:40.465Z,148.32
2023-03-29T03:20:14.955Z,149.38
2023-03-29T03:22:45.892Z,143.98
2023-03-29T03:25:18.444Z,152.38
2023-03-29T03:27:47.177Z,152.93
2023-03-29T03:30:19.245Z,151.38
2023-03-29T03:33:08.137Z,148.13
2023-03-29T03:35:57.405Z,154.80
2023-03-29T03:38:28.699Z,152.50
2023-03-29T03:41:02.011Z,149.65
2023-03-29T03:43:32.764Z,148.55
2023-03-29T03:46:00.402Z,146.30
2023-03-29T03:48:27.961Z,153.38
2023-03-29T03:51:17.628Z,145.77
2023-03-29T03:53:45.919Z,156.38
2023-03-29T03:56:13.578Z,145.70
2023-03-29T03:59:02.132Z,151.23
2023-03-29T04:04:14.551Z,153.50
2023-03-29T04:06:54.713Z,154.93
2023-03-29T04:09:28.617Z,156.43
2023-03-29T04:12:12.085Z,147.88
2023-03-29T04:14:40.991Z,157.48
2023-03-29T04:17:15.048Z,153.48
2023-03-29T04:19:59.214Z,149.52
2023-03-29T04:22:30.007Z,145.85
2023-03-29T04:24:58.813Z,155.45
2023-03-29T04:27:45.345Z,149.15
2023-03-29T04:30:23.962Z,151.40
2023-03-29T04:33:20.163Z,150.80
2023-03-29T04:36:00.823Z,157.23
2023-03-29T04:38:36.278Z,157.27
2023-03-29T04:41:05.293Z,146.32
2023-03-29T04:43:50.252Z,155.10
2023-03-29T04:46:25.924Z,146.15
2023-03-29T04:49:14.040Z,147.27
2023-03-29T04:51:49.932Z,147.77
2023-03-29T04:54:21.293Z,143.80
2023-03-29T04:57:08.186Z,147.43
2023-03-29T04:59:43.623Z,146.88
2023-03-29T05:02:20.763Z,146.50
2023-03-29T05:04:49.870Z,150.32
2023-03-29T05:07:20.239Z,150.02
2023-03-29T05:09:48.012Z,150.93
2023-03-29T05:12:15.650Z,149.73
2023-03-29T05:14:55.144Z,150.90
2023-03-29T05:17:27.738Z,145.25
2023-03-29T05:20:02.122Z,158.57
2023-03-29T05:22:33.880Z,147.45
2023-03-29T05:25:01.080Z,155.23
2023-03-29T05:27:30.717Z,149.75
2023-03-29T05:30:02.437Z,148.90
2023-03-29T05:32:47.020Z,198.20
2023-03-29T05:35:27.222Z,179.15
2023-03-29T05:37:56.500Z,153.90
2023-03-29T05:40:26.671Z,179.45
2023-03-29T05:43:28.079Z,190.77
2023-03-29T05:46:05.308Z,148.73
2023-03-29T05:48:38.609Z,157.18
2023-03-29T05:51:10.882Z,178.95
2023-03-29T05:53:38.284Z,150.40
2023-03-29T05:56:08.671Z,147.18
2023-03-29T05:58:36.629Z,151.10
2023-03-29T06:01:15.802Z,148.73
2023-03-29T06:03:56.753Z,155.15
2023-03-29T06:06:29.879Z,154.50
2023-03-29T06:08:59.637Z,153.35
2023-03-29T06:11:52.595Z,146.38
2023-03-29T06:14:39.039Z,146.18
2023-03-29T06:17:19.393Z,149.20
2023-03-29T06:19:49.750Z,148.32
2023-03-29T06:22:20.411Z,143.50
2023-03-29T06:24:48.259Z,148.38
2023-03-29T06:27:28.260Z,150.00
2023-03-29T06:29:58.342Z,150.98
2023-03-29T06:32:35.177Z,145.48
2023-03-29T06:35:18.745Z,149.75
2023-03-29T06:37:55.265Z,151.20
2023-03-29T06:40:33.096Z,147.48
2023-03-29T06:43:02.239Z,144.15
2023-03-29T06:45:38.942Z,148.63
2023-03-29T06:48:12.702Z,141.27
2023-03-29T06:50:41.347Z,144.80
2023-03-29T06:53:17.354Z,146.77
2023-03-29T06:55:52.886Z,146.65
2023-03-29T06:58:46.157Z,143.75
2023-03-29T07:01:32.115Z,150.90
2023-03-29T07:04:09.982Z,143.15
2023-03-29T07:07:07.773Z,145.07
2023-03-29T07:09:39.871Z,143.98
2023-03-29T07:12:30.364Z,148.75
2023-03-29T07:15:13.219Z,147.50
2023-03-29T07:17:59.307Z,142.73
2023-03-29T07:20:27.397Z,146.30
2023-03-29T07:23:06.853Z,139.52
2023-03-29T07:25:34.303Z,145.13
2023-03-29T07:28:01.649Z,146.38
2023-03-29T07:30:32.011Z,144.45
2023-03-29T07:33:12.773Z,145.75
2023-03-29T07:35:48.073Z,146.40
2023-03-29T07:38:15.977Z,143.52
2023-03-29T07:40:52.851Z,135.70
2023-03-29T07:43:41.929Z,146.70
2023-03-29T07:46:11.247Z,144.63
2023-03-29T07:48:39.486Z,146.32
2023-03-29T07:51:16.501Z,144.80
2023-03-29T07:53:54.431Z,145.93
2023-03-29T07:56:39.834Z,143.75
2023-03-29T07:59:17.856Z,143.27
2023-03-29T08:01:50.764Z,144.38
2023-03-29T08:04:48.083Z,144.00
2023-03-29T08:07:18.878Z,142.48
2023-03-29T08:10:17.291Z,148.85
2023-03-29T08:12:53.418Z,142.60
2023-03-29T08:15:28.350Z,144.98
2023-03-29T08:17:55.800Z,138.63
2023-03-29T08:20:23.287Z,145.73
2023-03-29T08:22:55.386Z,143.48
2023-03-29T08:25:48.752Z,143.98
2023-03-29T08:28:19.122Z,145.07
2023-03-29T08:30:50.847Z,146.23
2023-03-29T08:33:18.541Z,139.52
2023-03-29T08:35:54.026Z,140.98
2023-03-29T08:38:31.284Z,142.93
2023-03-29T08:41:02.530Z,139.05
2023-03-29T08:44:02.470Z,141.05
2023-03-29T08:46:51.955Z,140.00
2023-03-29T08:49:32.071Z,143.77
2023-03-29T08:52:06.458Z,138.85
2023-03-29T08:54:50.173Z,144.10
2023-03-29T08:57:43.742Z,136.95
2023-03-29T09:00:27.506Z,137.40
2023-03-29T09:02:59.262Z,161.73
2023-03-29T09:05:36.448Z,147.93
2023-03-29T09:08:31.859Z,146.00
2023-03-29T09:11:25.679Z,144.85
2023-03-29T09:14:45.147Z,141.48
2023-03-29T09:20:11.356Z,138.02
2023-03-29T09:22:50.797Z,147.45
2023-03-29T09:25:53.489Z,144.77
2023-03-29T09:28:39.277Z,144.23
2023-03-29T09:31:16.790Z,140.57
2023-03-29T09:34:03.882Z,140.98
2023-03-29T09:36:54.663Z,138.43
2023-03-29T09:39:23.279Z,141.15
2023-03-29T09:42:05.415Z,141.48
2023-03-29T09:44:41.937Z,140.43
2023-03-29T09:47:27.155Z,141.18
2023-03-29T09:49:59.625Z,138.55
2023-03-29T09:52:30.553Z,142.30
2023-03-29T09:55:08.375Z,144.35
2023-03-29T09:57:56.288Z,137.25
2023-03-29T10:00:25.110Z,139.82
2023-03-29T10:03:10.801Z,140.35
2023-03-29T10:05:55.288Z,133.20
2023-03-29T10:08:30.623Z,137.43
2023-03-29T10:11:02.012Z,133.60
2023-03-29T10:13:43.985Z,137.48
2023-03-29T10:16:25.942Z,139.63
2023-03-29T10:18:55.226Z,140.57
2023-03-29T10:21:25.764Z,137.52
2023-03-29T10:23:59.755Z,138.95
2023-03-29T10:26:39.322Z,138.18
2023-03-29T10:29:08.660Z,137.13
2023-03-29T10:31:41.896Z,140.30
2023-03-29T10:34:13.159Z,141.52
2023-03-29T10:36:43.788Z,140.90
2023-03-29T10:39:15.298Z,137.27
2023-03-29T10:41:45.662Z,144.23
2023-03-29T10:44:33.291Z,142.70
2023-03-29T10:47:17.087Z,137.68
2023-03-29T10:49:50.851Z,144.32
2023-03-29T10:54:49.135Z,139.65
2023-03-29T10:57:23.701Z,140.00
2023-03-29T11:00:01.305Z,139.40
2023-03-29T11:02:44.422Z,135.15
2023-03-29T11:05:24.853Z,143.52
2023-03-29T11:08:09.112Z,139.75
2023-03-29T11:10:53.596Z,136.20
2023-03-29T11:14:00.694Z,136.82
2023-03-29T11:16:51.383Z,140.38
2023-03-29T11:19:31.622Z,138.73
2023-03-29T11:22:23.313Z,136.18
2023-03-29T11:25:20.160Z,139.43
2023-03-29T11:27:53.244Z,140.10
2023-03-29T11:30:29.472Z,140.23
2023-03-29T11:33:30.217Z,140.63
2023-03-29T11:36:13.026Z,138.00
2023-03-29T11:39:05.372Z,142.55
2023-03-29T11:41:40.501Z,141.85
2023-03-29T11:44:15.133Z,137.18
2023-03-29T11:46:51.064Z,140.95
2023-03-29T11:49:37.476Z,129.98
2023-03-29T11:52:07.021Z,138.80
2023-03-29T11:54:46.287Z,138.85
2023-03-29T11:57:24.421Z,137.70
2023-03-29T12:00:06.273Z,132.75
2023-03-29T12:02:48.003Z,132.68
2023-03-29T12:05:36.343Z,133.18
2023-03-29T12:08:06.571Z,132.95
2023-03-29T12:10:44.388Z,134.82
2023-03-29T12:13:33.930Z,133.45
2023-03-29T12:16:11.548Z,133.40
2023-03-29T12:18:45.824Z,130.13
2023-03-29T12:21:27.046Z,137.63
2023-03-29T12:23:55.319Z,133.07
2023-03-29T12:26:46.089Z,132.48
2023-03-29T12:29:52.964Z,137.10
2023-03-29T12:32:41.984Z,134.32
2023-03-29T12:35:44.207Z,131.48
2023-03-29T12:38:49.304Z,131.60
2023-03-29T12:41:37.898Z,131.30
2023-03-29T12:44:51.345Z,128.48
2023-03-29T12:47:26.994Z,131.85
2023-03-29T12:49:57.705Z,130.27
2023-03-29T12:52:27.625Z,130.25
2023-03-29T12:55:00.060Z,131.20
2023-03-29T12:57:41.106Z,131.00
2023-03-29T13:00:37.082Z,131.60
2023-03-29T13:03:19.803Z,128.48
2023-03-29T13:05:47.317Z,130.48
2023-03-29T13:08:29.936Z,123.18
2023-03-29T13:10:59.480Z,128.85
2023-03-29T13:13:33.516Z,129.63
2023-03-29T13:16:18.042Z,129.93
2023-03-29T13:18:47.157Z,131.60
2023-03-29T13:21:38.914Z,129.90
2023-03-29T13:24:24.426Z,132.90
2023-03-29T13:27:03.198Z,129.10
2023-03-29T13:29:51.419Z,128.82
2023-03-29T13:32:41.603Z,127.55
2023-03-29T13:38:32.099Z,130.23
2023-03-29T13:41:08.270Z,129.35
2023-03-29T13:43:57.922Z,131.35
2023-03-29T13:46:44.604Z,128.82
2023-03-29T13:49:19.856Z,130.60
2023-03-29T13:52:15.126Z,126.97
2023-03-29T13:54:58.150Z,131.90
2023-03-29T14:00:23.678Z,132.45
2023-03-29T14:02:58.083Z,133.98
2023-03-29T14:05:32.608Z,131.38
2023-03-29T14:08:23.593Z,132.52
2023-03-29T14:10:51.133Z,131.60
2023-03-29T14:13:22.540Z,133.32
2023-03-29T14:15:55.680Z,129.68
2023-03-29T14:18:27.875Z,131.93
2023-03-29T14:20:57.588Z,132.10
2023-03-29T14:23:27.385Z,129.75
2023-03-29T14:25:54.974Z,130.88
2023-03-29T14:28:27.182Z,131.93
2023-03-29T14:30:55.493Z,131.63
2023-03-29T14:33:28.084Z,127.05
2023-03-29T14:36:00.306Z,132.10
2023-03-29T14:38:27.891Z,129.38
2023-03-29T14:40:59.725Z,131.25
2023-03-29T14:43:30.360Z,132.55
2023-03-29T14:46:07.494Z,130.38
2023-03-29T14:48:37.558Z,131.35
2023-03-29T14:51:07.689Z,129.98
2023-03-29T14:53:38.078Z,134.07
2023-03-29T14:56:07.063Z,134.45
2023-03-29T14:58:37.595Z,131.23
2023-03-29T15:01:16.594Z,135.02
2023-03-29T15:04:05.042Z,135.43
2023-03-29T15:06:38.272Z,134.52
2023-03-29T15:09:17.048Z,132.05
2023-03-29T15:11:57.638Z,137.23
2023-03-29T15:14:27.581Z,130.43
2023-03-29T15:17:02.655Z,132.95
2023-03-29T15:19:29.910Z,130.63
2023-03-29T15:21:58.424Z,130.15
2023-03-29T15:24:32.254Z,132.65
2023-03-29T15:27:17.252Z,132.77
2023-03-29T15:29:46.945Z,136.75
2023-03-29T15:32:33.628Z,134.18
2023-03-29T15:35:13.330Z,134.52
2023-03-29T15:38:44.595Z,132.38
2023-03-29T15:41:04.153Z,134.13
2023-03-29T15:43:31.607Z,133.32
2023-03-29T15:45:58.874Z,131.23
2023-03-29T15:48:33.899Z,129.90
2023-03-29T15:51:05.715Z,131.65
2023-03-29T15:53:33.939Z,135.77
2023-03-29T15:56:03.977Z,129.95
2023-03-29T15:58:32.523Z,135.82
2023-03-29T16:01:13.702Z,132.10
2023-03-29T16:03:47.890Z,137.85
2023-03-29T16:06:17.834Z,140.38
2023-03-29T16:08:45.944Z,135.23
2023-03-29T16:11:13.538Z,129.90
2023-03-29T16:13:40.752Z,130.85
2023-03-29T16:16:10.394Z,135.35
2023-03-29T16:18:40.990Z,137.00
2023-03-29T16:21:13.650Z,134.07
2023-03-29T16:23:41.974Z,136.38
2023-03-29T16:26:16.496Z,137.35
2023-03-29T16:28:44.084Z,128.73
2023-03-29T16:31:13.337Z,156.77
2023-03-29T16:33:42.973Z,197.30
2023-03-29T16:36:13.767Z,158.82
2023-03-29T16:38:43.495Z,130.57
2023-03-29T16:41:17.834Z,216.55
2023-03-29T16:43:48.183Z,200.02
2023-03-29T16:46:18.142Z,240.18
2023-03-29T16:48:49.216Z,134.38
2023-03-29T16:51:16.303Z,134.82
2023-03-29T16:53:43.188Z,133.18
2023-03-29T16:56:12.827Z,133.90
2023-03-29T16:58:40.011Z,133.23
2023-03-29T17:01:16.107Z,139.38
2023-03-29T17:03:43.630Z,134.43
2023-03-29T17:06:12.516Z,134.93
2023-03-29T17:08:40.210Z,130.70
2023-03-29T17:11:07.501Z,135.63
2023-03-29T17:13:34.451Z,138.15
2023-03-29T17:16:01.561Z,128.27
2023-03-29T17:18:29.376Z,137.75
2023-03-29T17:20:58.581Z,134.68
2023-03-29T17:23:26.594Z,131.98
2023-03-29T17:25:56.052Z,134.75
2023-03-29T17:28:26.600Z,129.68
2023-03-29T17:30:53.511Z,138.50
2023-03-29T17:33:26.387Z,136.27
2023-03-29T17:35:53.841Z,136.07
2023-03-29T17:38:27.207Z,138.68
2023-03-29T17:40:56.795Z,135.93
2023-03-29T17:43:23.990Z,131.40
2023-03-29T17:45:53.040Z,134.38
2023-03-29T17:48:20.736Z,136.63
2023-03-29T17:50:47.824Z,138.13
2023-03-29T17:53:14.880Z,139.48
2023-03-29T17:55:42.356Z,139.60
2023-03-29T17:58:09.202Z,138.85
2023-03-29T18:00:36.454Z,136.93
2023-03-29T18:03:03.825Z,139.65
2023-03-29T18:05:33.044Z,137.85
2023-03-29T18:08:02.787Z,132.43
2023-03-29T18:10:29.985Z,136.65
2023-03-29T18:12:57.409Z,137.90
2023-03-29T18:15:24.306Z,131.70
2023-03-29T18:17:51.248Z,135.45
2023-03-29T18:20:18.440Z,133.18
2023-03-29T18:22:45.840Z,142.55
2023-03-29T18:25:12.917Z,135.95
2023-03-29T18:27:40.432Z,133.23
2023-03-29T18:30:08.769Z,136.77
2023-03-29T18:32:36.724Z,139.65
2023-03-29T18:35:06.637Z,136.10
2023-03-29T18:37:36.650Z,141.15
2023-03-29T18:40:08.153Z,134.70
2023-03-29T18:42:35.211Z,138.23
2023-03-29T18:45:02.635Z,132.43
2023-03-29T18:47:29.570Z,137.07
2023-03-29T18:49:57.921Z,132.55
2023-03-29T18:52:24.766Z,134.70
2023-03-29T18:54:52.058Z,137.10
2023-03-29T18:57:19.408Z,135.88
2023-03-29T18:59:46.395Z,140.25
2023-03-29T19:02:14.407Z,130.32
2023-03-29T19:04:41.694Z,134.15
2023-03-29T19:07:09.232Z,138.40
2023-03-29T19:09:36.483Z,138.52
2023-03-29T19:12:03.607Z,138.80
2023-03-29T19:14:33.008Z,133.88
2023-03-29T19:17:00.307Z,135.00
2023-03-29T19:19:28.214Z,136.93
2023-03-29T19:21:58.301Z,135.77
2023-03-29T19:24:27.511Z,137.45
2023-03-29T19:26:57.796Z,136.65
2023-03-29T19:29:26.075Z,133.30
2023-03-29T19:31:54.852Z,132.07
2023-03-29T19:34:23.786Z,135.93
2023-03-29T19:36:52.149Z,136.93
2023-03-29T19:39:19.290Z,135.57
2023-03-29T19:41:46.336Z,139.32
2023-03-29T19:44:13.731Z,133.50
2023-03-29T19:46:41.153Z,140.90
2023-03-29T19:49:13.862Z,141.88
2023-03-29T19:51:42.200Z,133.43
2023-03-29T19:54:15.874Z,141.98
2023-03-29T19:56:46.391Z,136.02
2023-03-29T19:59:17.712Z,136.02
2023-03-29T20:01:51.323Z,138.70
2023-03-29T20:04:19.960Z,137.63
2023-03-29T20:06:47.223Z,139.77
2023-03-29T20:09:18.642Z,137.45
2023-03-29T20:11:47.125Z,141.52
2023-03-29T20:14:14.242Z,142.88
2023-03-29T20:16:43.773Z,142.73
2023-03-29T20:19:10.920Z,140.82
2023-03-29T20:21:38.501Z,138.35
2023-03-29T20:24:09.686Z,137.52
2023-03-29T20:26:36.854Z,142.80
2023-03-29T20:29:03.965Z,137.18
2023-03-29T20:31:33.991Z,145.00
2023-03-29T20:34:01.018Z,136.73
2023-03-29T20:36:30.867Z,136.60
2023-03-29T20:38:59.431Z,139.05
2023-03-29T20:41:26.883Z,131.15
2023-03-29T20:44:00.104Z,138.73
2023-03-29T20:46:33.581Z,135.50
2023-03-29T20:49:02.162Z,136.27
2023-03-29T20:51:32.473Z,131.85
2023-03-29T20:54:05.095Z,138.98
2023-03-29T20:56:34.938Z,137.50
2023-03-29T20:59:03.235Z,133.35
2023-03-29T21:01:30.989Z,141.88
2023-03-29T21:04:00.657Z,139.30
2023-03-29T21:06:27.666Z,141.75
2023-03-29T21:08:54.564Z,137.50
2023-03-29T21:11:21.689Z,138.30
2023-03-29T21:13:48.891Z,138.40
2023-03-29T21:16:15.948Z,145.40
2023-03-29T21:18:43.540Z,140.27
2023-03-29T21:21:11.785Z,142.10
2023-03-29T21:23:39.841Z,138.10
2023-03-29T21:26:09.720Z,139.75
2023-03-29T21:28:37.855Z,139.43
2023-03-29T21:31:06.836Z,138.98
2023-03-29T21:33:38.197Z,140.70
2023-03-29T21:36:05.588Z,142.05
2023-03-29T21:38:32.752Z,142.75
2023-03-29T21:41:00.369Z,137.13
2023-03-29T21:43:28.233Z,141.45
2023-03-29T21:45:55.168Z,138.93
2023-03-29T21:48:22.742Z,140.30
2023-03-29T21:50:52.735Z,136.98
2023-03-29T21:53:19.842Z,136.43
2023-03-29T21:55:50.028Z,142.98
2023-03-29T21:58:17.314Z,133.52
2023-03-29T22:00:45.961Z,141.00
2023-03-29T22:03:14.416Z,141.00
2023-03-29T22:05:44.875Z,138.25
2023-03-29T22:08:12.113Z,137.02
2023-03-29T22:10:41.535Z,138.20
2023-03-29T22:13:13.208Z,136.93
2023-03-29T22:15:40.386Z,133.10
2023-03-29T22:18:10.317Z,137.13
2023-03-29T22:20:37.933Z,135.80
2023-03-29T22:23:04.763Z,141.70
2023-03-29T22:25:34.012Z,138.35
2023-03-29T22:28:00.861Z,140.07
2023-03-29T22:30:30.492Z,139.35
2023-03-29T22:33:00.229Z,137.07
2023-03-29T22:35:27.564Z,136.40
2023-03-29T22:37:54.509Z,137.60
2023-03-29T22:40:24.592Z,139.93
2023-03-29T22:42:51.986Z,136.18
2023-03-29T22:45:19.196Z,134.77
2023-03-29T22:47:46.452Z,139.18
2023-03-29T22:50:13.715Z,140.30
2023-03-29T22:52:43.324Z,137.95
2023-03-29T22:55:10.802Z,137.90
2023-03-29T22:57:39.175Z,141.50
2023-03-29T23:00:10.435Z,140.80
2023-03-29T23:02:37.722Z,138.15
2023-03-29T23:05:05.137Z,139.10
2023-03-29T23:07:36.702Z,139.95
2023-03-29T23:10:06.692Z,136.80
2023-03-29T23:12:36.193Z,136.73
2023-03-29T23:15:08.206Z,132.85
2023-03-29T23:17:35.888Z,137.45
2023-03-29T23:20:06.026Z,133.98
2023-03-29T23:22:34.349Z,140.10
2023-03-29T23:25:01.292Z,139.00
2023-03-29T23:27:28.464Z,140.35
2023-03-29T23:30:02.342Z,135.75
2023-03-29T23:32:29.635Z,137.70
2023-03-29T23:34:56.800Z,137.95
2023-03-29T23:37:26.249Z,138.05
2023-03-29T23:39:53.976Z,135.52
2023-03-29T23:42:21.356Z,137.73
2023-03-29T23:44:48.514Z,133.93
2023-03-29T23:47:16.562Z,142.18
2023-03-29T23:49:45.677Z,139.07
2023-03-29T23:52:13.238Z,139.52
2023-03-29T23:54:40.051Z,141.05
2023-03-29T23:57:06.998Z,133.63
2023-03-29T23:59:37.952Z,142.90
